WZZ66 LRTM-LHBP
Flight info
| Callsign | WZZ66 |
|---|---|
| Flight time | 0h 41m |
| Altitude | 38000 |
| Route | DOKUD DCT IXUBA DCT ELROM DCT DEGET DCT KEZAL |
| Aircraft | A321/M-SDE1E2E3FGIJ1J4RWXY/LB1 |
Departure
| Time | 2026-05-06 17:08 |
|---|---|
| Airport | Târgu Mureş Transilvania International Airport (LRTM) |
Arrival
| Time | 2026-05-06 17:50 |
|---|---|
| Airport | Budapest Liszt Ferenc International Airport (LHBP) |
| Time | Latitude | Longitude | Altitude | Speed | Heading |
|---|---|---|---|---|---|
| 2026-05-06 16:36 | 46.46793 | 24.42249 | 972 ft | 0 kts | 255° |
| 2026-05-06 17:01 | 46.46797 | 24.42229 | 986 ft | 3 kts | 302° |
| 2026-05-06 17:01 | 46.46812 | 24.42232 | 981 ft | 2 kts | 24° |
| 2026-05-06 17:01 | 46.46827 | 24.42262 | 983 ft | 5 kts | 69° |
| 2026-05-06 17:02 | 46.46840 | 24.42327 | 976 ft | 9 kts | 73° |
| 2026-05-06 17:02 | 46.46859 | 24.42425 | 976 ft | 12 kts | 74° |
| 2026-05-06 17:02 | 46.46863 | 24.42442 | 972 ft | 0 kts | 73° |
| 2026-05-06 17:03 | 46.46864 | 24.42450 | 972 ft | 1 kts | 73° |
| 2026-05-06 17:03 | 46.46870 | 24.42476 | 980 ft | 4 kts | 73° |
| 2026-05-06 17:03 | 46.46879 | 24.42523 | 979 ft | 3 kts | 71° |
| 2026-05-06 17:04 | 46.46894 | 24.42530 | 980 ft | 0 kts | 345° |
| 2026-05-06 17:04 | 46.46904 | 24.42526 | 979 ft | 3 kts | 345° |
| 2026-05-06 17:05 | 46.46940 | 24.42513 | 980 ft | 7 kts | 345° |
| 2026-05-06 17:05 | 46.46996 | 24.42491 | 979 ft | 8 kts | 345° |
| 2026-05-06 17:05 | 46.47011 | 24.42456 | 976 ft | 4 kts | 253° |
| 2026-05-06 17:05 | 46.47008 | 24.42441 | 978 ft | 0 kts | 254° |
| 2026-05-06 17:07 | 46.46990 | 24.42345 | 976 ft | 39 kts | 254° |
| 2026-05-06 17:08 | 46.46838 | 24.41569 | 973 ft | 118 kts | 254° |
| 2026-05-06 17:08 | 46.46556 | 24.40141 | 1074 ft | 166 kts | 254° |
| 2026-05-06 17:08 | 46.46240 | 24.38578 | 1919 ft | 160 kts | 252° |
| 2026-05-06 17:08 | 46.45934 | 24.36994 | 2535 ft | 173 kts | 252° |
| 2026-05-06 17:09 | 46.45590 | 24.35201 | 2868 ft | 195 kts | 252° |
| 2026-05-06 17:09 | 46.45196 | 24.33198 | 3177 ft | 219 kts | 252° |
| 2026-05-06 17:09 | 46.44749 | 24.30949 | 3573 ft | 244 kts | 252° |
| 2026-05-06 17:09 | 46.44267 | 24.28476 | 4116 ft | 262 kts | 252° |
| 2026-05-06 17:10 | 46.43657 | 24.25956 | 4928 ft | 268 kts | 248° |
| 2026-05-06 17:10 | 46.43201 | 24.23318 | 5812 ft | 272 kts | 257° |
| 2026-05-06 17:10 | 46.42821 | 24.20620 | 6690 ft | 275 kts | 257° |
| 2026-05-06 17:10 | 46.42668 | 24.17847 | 7521 ft | 282 kts | 278° |
| 2026-05-06 17:11 | 46.43505 | 24.15277 | 8348 ft | 290 kts | 310° |
| 2026-05-06 17:11 | 46.45084 | 24.13438 | 9215 ft | 294 kts | 325° |
| 2026-05-06 17:11 | 46.46795 | 24.11789 | 10085 ft | 297 kts | 324° |
| 2026-05-06 17:11 | 46.48569 | 24.10033 | 10431 ft | 320 kts | 324° |
| 2026-05-06 17:12 | 46.50456 | 24.08141 | 10786 ft | 337 kts | 324° |
| 2026-05-06 17:12 | 46.52398 | 24.06170 | 11456 ft | 343 kts | 323° |
| 2026-05-06 17:12 | 46.54357 | 24.04177 | 12209 ft | 346 kts | 323° |
| 2026-05-06 17:12 | 46.56337 | 24.02158 | 12946 ft | 349 kts | 323° |
| 2026-05-06 17:13 | 46.58327 | 24.00113 | 13683 ft | 352 kts | 322° |
| 2026-05-06 17:13 | 46.60090 | 23.97647 | 14308 ft | 353 kts | 304° |
| 2026-05-06 17:13 | 46.61204 | 23.94484 | 14959 ft | 353 kts | 285° |
| 2026-05-06 17:13 | 46.61758 | 23.91003 | 15643 ft | 354 kts | 280° |
| 2026-05-06 17:14 | 46.62251 | 23.87483 | 16347 ft | 357 kts | 280° |
| 2026-05-06 17:14 | 46.62759 | 23.83936 | 17025 ft | 360 kts | 281° |
| 2026-05-06 17:14 | 46.63276 | 23.80356 | 17704 ft | 363 kts | 281° |
| 2026-05-06 17:14 | 46.63799 | 23.76750 | 18349 ft | 366 kts | 281° |
| 2026-05-06 17:15 | 46.64317 | 23.73155 | 18904 ft | 369 kts | 281° |
| 2026-05-06 17:15 | 46.64854 | 23.69442 | 19512 ft | 372 kts | 281° |
| 2026-05-06 17:15 | 46.65380 | 23.65794 | 20098 ft | 375 kts | 281° |
| 2026-05-06 17:15 | 46.65914 | 23.62072 | 20689 ft | 377 kts | 281° |
| 2026-05-06 17:16 | 46.66451 | 23.58315 | 21290 ft | 380 kts | 281° |
| 2026-05-06 17:16 | 46.66996 | 23.54531 | 21876 ft | 383 kts | 281° |
| 2026-05-06 17:16 | 46.67544 | 23.50717 | 22476 ft | 386 kts | 281° |
| 2026-05-06 17:16 | 46.68090 | 23.46871 | 23043 ft | 390 kts | 281° |
| 2026-05-06 17:17 | 46.68637 | 23.42991 | 23609 ft | 393 kts | 281° |
| 2026-05-06 17:17 | 46.69187 | 23.39072 | 24057 ft | 396 kts | 281° |
| 2026-05-06 17:17 | 46.69747 | 23.35126 | 24523 ft | 399 kts | 281° |
| 2026-05-06 17:17 | 46.70304 | 23.31167 | 25010 ft | 400 kts | 281° |
| 2026-05-06 17:18 | 46.70858 | 23.27194 | 25486 ft | 401 kts | 281° |
| 2026-05-06 17:18 | 46.71410 | 23.23206 | 25952 ft | 402 kts | 281° |
| 2026-05-06 17:18 | 46.71962 | 23.19201 | 26406 ft | 404 kts | 281° |
| 2026-05-06 17:18 | 46.72525 | 23.15183 | 26851 ft | 405 kts | 282° |
| 2026-05-06 17:19 | 46.73091 | 23.11148 | 27284 ft | 407 kts | 282° |
| 2026-05-06 17:19 | 46.73646 | 23.07095 | 27699 ft | 409 kts | 279° |
| 2026-05-06 17:19 | 46.74057 | 23.02986 | 28105 ft | 411 kts | 282° |
| 2026-05-06 17:19 | 46.74771 | 22.98946 | 28519 ft | 412 kts | 284° |
| 2026-05-06 17:20 | 46.75472 | 22.94886 | 28914 ft | 414 kts | 283° |
| 2026-05-06 17:20 | 46.76136 | 22.90794 | 29320 ft | 415 kts | 283° |
| 2026-05-06 17:20 | 46.76791 | 22.86682 | 29698 ft | 417 kts | 283° |
| 2026-05-06 17:20 | 46.77453 | 22.82559 | 30053 ft | 418 kts | 283° |
| 2026-05-06 17:21 | 46.78106 | 22.78419 | 30349 ft | 420 kts | 283° |
| 2026-05-06 17:21 | 46.78763 | 22.74256 | 30647 ft | 422 kts | 283° |
| 2026-05-06 17:21 | 46.79412 | 22.70082 | 30942 ft | 423 kts | 283° |
| 2026-05-06 17:21 | 46.80065 | 22.65889 | 31236 ft | 424 kts | 283° |
| 2026-05-06 17:22 | 46.80730 | 22.61687 | 31515 ft | 426 kts | 283° |
| 2026-05-06 17:22 | 46.81391 | 22.57473 | 31816 ft | 424 kts | 283° |
| 2026-05-06 17:22 | 46.82034 | 22.53367 | 31942 ft | 406 kts | 282° |
| 2026-05-06 17:23 | 46.83252 | 22.45493 | 31957 ft | 393 kts | 283° |
| 2026-05-06 17:23 | 46.84465 | 22.37730 | 31951 ft | 392 kts | 282° |
| 2026-05-06 17:24 | 46.85655 | 22.29968 | 31948 ft | 391 kts | 282° |
| 2026-05-06 17:24 | 46.86846 | 22.22205 | 31931 ft | 392 kts | 282° |
| 2026-05-06 17:25 | 46.88035 | 22.14444 | 31929 ft | 391 kts | 282° |
| 2026-05-06 17:25 | 46.89214 | 22.06676 | 31926 ft | 391 kts | 282° |
| 2026-05-06 17:26 | 46.90381 | 21.98914 | 31920 ft | 391 kts | 282° |
| 2026-05-06 17:26 | 46.91548 | 21.91148 | 31917 ft | 391 kts | 282° |
| 2026-05-06 17:27 | 46.92707 | 21.83385 | 31917 ft | 391 kts | 282° |
| 2026-05-06 17:27 | 46.93863 | 21.75623 | 31925 ft | 391 kts | 282° |
| 2026-05-06 17:28 | 46.95012 | 21.67860 | 31933 ft | 390 kts | 281° |
| 2026-05-06 17:28 | 46.96147 | 21.60106 | 31931 ft | 390 kts | 281° |
| 2026-05-06 17:28 | 46.96720 | 21.56182 | 31725 ft | 396 kts | 282° |
| 2026-05-06 17:29 | 46.97307 | 21.52219 | 30843 ft | 402 kts | 281° |
| 2026-05-06 17:29 | 46.97878 | 21.48263 | 30190 ft | 400 kts | 281° |
| 2026-05-06 17:29 | 46.98453 | 21.44314 | 29670 ft | 393 kts | 281° |
| 2026-05-06 17:29 | 46.99021 | 21.40432 | 29150 ft | 386 kts | 281° |
| 2026-05-06 17:30 | 46.99569 | 21.36616 | 28670 ft | 380 kts | 281° |
| 2026-05-06 17:30 | 47.00112 | 21.32856 | 28170 ft | 375 kts | 281° |
| 2026-05-06 17:30 | 47.00644 | 21.29145 | 27691 ft | 370 kts | 281° |
| 2026-05-06 17:30 | 47.01174 | 21.25467 | 27204 ft | 367 kts | 281° |
| 2026-05-06 17:31 | 47.01697 | 21.21819 | 26733 ft | 365 kts | 281° |
| 2026-05-06 17:31 | 47.02218 | 21.18187 | 26251 ft | 363 kts | 281° |
| 2026-05-06 17:31 | 47.02732 | 21.14580 | 25780 ft | 361 kts | 281° |
| 2026-05-06 17:31 | 47.03244 | 21.10989 | 25305 ft | 359 kts | 281° |
| 2026-05-06 17:32 | 47.03748 | 21.07422 | 24840 ft | 357 kts | 281° |
| 2026-05-06 17:32 | 47.04250 | 21.03868 | 24373 ft | 355 kts | 280° |
| 2026-05-06 17:32 | 47.04750 | 21.00341 | 23913 ft | 352 kts | 281° |
| 2026-05-06 17:32 | 47.05250 | 20.96834 | 23449 ft | 351 kts | 280° |
| 2026-05-06 17:33 | 47.05740 | 20.93348 | 22917 ft | 347 kts | 279° |
| 2026-05-06 17:33 | 47.06215 | 20.89894 | 22464 ft | 343 kts | 279° |
| 2026-05-06 17:33 | 47.06694 | 20.86492 | 22007 ft | 339 kts | 280° |
| 2026-05-06 17:33 | 47.07167 | 20.83131 | 21553 ft | 335 kts | 279° |
| 2026-05-06 17:34 | 47.07628 | 20.79804 | 21113 ft | 331 kts | 279° |
| 2026-05-06 17:34 | 47.08086 | 20.76505 | 20655 ft | 328 kts | 279° |
| 2026-05-06 17:34 | 47.08539 | 20.73241 | 20218 ft | 326 kts | 279° |
| 2026-05-06 17:34 | 47.08989 | 20.69995 | 19775 ft | 323 kts | 279° |
| 2026-05-06 17:35 | 47.09433 | 20.66776 | 19330 ft | 321 kts | 279° |
| 2026-05-06 17:35 | 47.09873 | 20.63567 | 18879 ft | 320 kts | 278° |
| 2026-05-06 17:35 | 47.10308 | 20.60419 | 18445 ft | 318 kts | 279° |
| 2026-05-06 17:36 | 47.11181 | 20.54079 | 17497 ft | 315 kts | 278° |
| 2026-05-06 17:36 | 47.11607 | 20.50949 | 17061 ft | 312 kts | 278° |
| 2026-05-06 17:36 | 47.12024 | 20.47842 | 16612 ft | 309 kts | 278° |
| 2026-05-06 17:36 | 47.12448 | 20.44753 | 16171 ft | 308 kts | 279° |
| 2026-05-06 17:37 | 47.12872 | 20.41684 | 15718 ft | 306 kts | 278° |
| 2026-05-06 17:37 | 47.13289 | 20.38618 | 15269 ft | 305 kts | 278° |
| 2026-05-06 17:37 | 47.13699 | 20.35565 | 14820 ft | 305 kts | 278° |
| 2026-05-06 17:37 | 47.14102 | 20.32516 | 14371 ft | 304 kts | 278° |
| 2026-05-06 17:38 | 47.14512 | 20.29469 | 13921 ft | 304 kts | 278° |
| 2026-05-06 17:38 | 47.14920 | 20.26423 | 13451 ft | 304 kts | 278° |
| 2026-05-06 17:38 | 47.15334 | 20.23384 | 12989 ft | 303 kts | 281° |
| 2026-05-06 17:38 | 47.15886 | 20.20409 | 12560 ft | 301 kts | 284° |
| 2026-05-06 17:39 | 47.16473 | 20.17476 | 12139 ft | 299 kts | 284° |
| 2026-05-06 17:39 | 47.17053 | 20.14555 | 11697 ft | 297 kts | 283° |
| 2026-05-06 17:39 | 47.17627 | 20.11646 | 11265 ft | 295 kts | 283° |
| 2026-05-06 17:39 | 47.18193 | 20.08751 | 10829 ft | 294 kts | 283° |
| 2026-05-06 17:40 | 47.18749 | 20.05872 | 10405 ft | 292 kts | 283° |
| 2026-05-06 17:40 | 47.19305 | 20.03006 | 9996 ft | 291 kts | 283° |
| 2026-05-06 17:40 | 47.19848 | 20.00248 | 9845 ft | 279 kts | 283° |
| 2026-05-06 17:40 | 47.20377 | 19.97520 | 9445 ft | 277 kts | 283° |
| 2026-05-06 17:41 | 47.20900 | 19.94801 | 9053 ft | 275 kts | 283° |
| 2026-05-06 17:41 | 47.21425 | 19.92108 | 8699 ft | 272 kts | 283° |
| 2026-05-06 17:41 | 47.21938 | 19.89476 | 8391 ft | 269 kts | 283° |
| 2026-05-06 17:41 | 47.22449 | 19.86843 | 8021 ft | 267 kts | 283° |
| 2026-05-06 17:42 | 47.22954 | 19.84218 | 7654 ft | 266 kts | 282° |
| 2026-05-06 17:42 | 47.23457 | 19.81605 | 7288 ft | 265 kts | 282° |
| 2026-05-06 17:42 | 47.23959 | 19.78996 | 6931 ft | 265 kts | 282° |
| 2026-05-06 17:42 | 47.24457 | 19.76392 | 6556 ft | 264 kts | 282° |
| 2026-05-06 17:43 | 47.24959 | 19.73792 | 6190 ft | 264 kts | 282° |
| 2026-05-06 17:43 | 47.25457 | 19.71198 | 5815 ft | 263 kts | 282° |
| 2026-05-06 17:43 | 47.25950 | 19.68610 | 5457 ft | 262 kts | 282° |
| 2026-05-06 17:43 | 47.26443 | 19.66038 | 5098 ft | 260 kts | 282° |
| 2026-05-06 17:44 | 47.26931 | 19.63477 | 4747 ft | 259 kts | 282° |
| 2026-05-06 17:44 | 47.27412 | 19.60928 | 4382 ft | 258 kts | 282° |
| 2026-05-06 17:44 | 47.27896 | 19.58378 | 4117 ft | 259 kts | 282° |
| 2026-05-06 17:44 | 47.28378 | 19.55873 | 4060 ft | 247 kts | 282° |
| 2026-05-06 17:45 | 47.28829 | 19.53520 | 4059 ft | 230 kts | 282° |
| 2026-05-06 17:45 | 47.29247 | 19.51331 | 4057 ft | 217 kts | 282° |
| 2026-05-06 17:45 | 47.29903 | 19.49301 | 3958 ft | 224 kts | 300° |
| 2026-05-06 17:45 | 47.30893 | 19.47554 | 3653 ft | 222 kts | 309° |
| 2026-05-06 17:46 | 47.31965 | 19.45945 | 3354 ft | 217 kts | 310° |
| 2026-05-06 17:46 | 47.32997 | 19.44353 | 3074 ft | 212 kts | 308° |
| 2026-05-06 17:46 | 47.33986 | 19.42770 | 2804 ft | 207 kts | 307° |
| 2026-05-06 17:46 | 47.34944 | 19.41224 | 2533 ft | 201 kts | 307° |
| 2026-05-06 17:47 | 47.35870 | 19.39736 | 2302 ft | 192 kts | 307° |
| 2026-05-06 17:47 | 47.36741 | 19.38337 | 2036 ft | 183 kts | 307° |
| 2026-05-06 17:47 | 47.37576 | 19.36998 | 1808 ft | 168 kts | 307° |
| 2026-05-06 17:47 | 47.38331 | 19.35786 | 1577 ft | 154 kts | 306° |
| 2026-05-06 17:48 | 47.39039 | 19.34643 | 1377 ft | 148 kts | 306° |
| 2026-05-06 17:48 | 47.39732 | 19.33523 | 1198 ft | 147 kts | 307° |
| 2026-05-06 17:48 | 47.40420 | 19.32411 | 1007 ft | 147 kts | 306° |
| 2026-05-06 17:48 | 47.41111 | 19.31287 | 808 ft | 148 kts | 306° |
| 2026-05-06 17:49 | 47.41804 | 19.30174 | 624 ft | 146 kts | 308° |
| 2026-05-06 17:49 | 47.42492 | 19.29069 | 457 ft | 145 kts | 309° |
| 2026-05-06 17:49 | 47.43082 | 19.28117 | 459 ft | 103 kts | 313° |
| 2026-05-06 17:49 | 47.43357 | 19.27673 | 466 ft | 73 kts | 312° |
| 2026-05-06 17:50 | 47.43597 | 19.27284 | 471 ft | 26 kts | 313° |
| 2026-05-06 17:50 | 47.43707 | 19.27070 | 473 ft | 27 kts | 298° |
| 2026-05-06 17:50 | 47.43763 | 19.26787 | 461 ft | 32 kts | 283° |
| 2026-05-06 17:50 | 47.43797 | 19.26559 | 459 ft | 20 kts | 282° |
| 2026-05-06 17:51 | 47.43755 | 19.26424 | 458 ft | 16 kts | 221° |
| 2026-05-06 17:51 | 47.43678 | 19.26356 | 458 ft | 12 kts | 171° |
| 2026-05-06 17:51 | 47.43607 | 19.26444 | 456 ft | 15 kts | 133° |
| 2026-05-06 17:51 | 47.43575 | 19.26477 | 458 ft | 3 kts | 190° |
| 2026-05-06 17:52 | 47.43549 | 19.26450 | 457 ft | 4 kts | 222° |
| 2026-05-06 17:52 | 47.43537 | 19.26435 | 457 ft | 1 kts | 222° |